createdAt,value
2022-09-06T00:04:56.751Z,101630.13
2022-09-06T00:10:20.146Z,101624.16
2022-09-06T00:15:43.616Z,101626.34
2022-09-06T00:21:16.017Z,101630.19
2022-09-06T00:26:39.444Z,101635.41
2022-09-06T00:32:02.885Z,101607.69
2022-09-06T00:37:27.587Z,101589.66
2022-09-06T00:42:50.897Z,101634.16
2022-09-06T00:48:14.102Z,101607.47
2022-09-06T00:53:38.686Z,101610.81
2022-09-06T00:59:02.458Z,101598.56
2022-09-06T01:04:26.515Z,101591.59
2022-09-06T01:10:02.312Z,101585.72
2022-09-06T01:15:41.705Z,101580.03
2022-09-06T01:21:14.729Z,101578.97
2022-09-06T01:27:16.979Z,101603.38
2022-09-06T01:32:48.729Z,101611.34
2022-09-06T01:38:12.002Z,101608.66
2022-09-06T01:43:39.524Z,101589.59
2022-09-06T01:49:21.089Z,101570.38
2022-09-06T01:55:07.142Z,101552.47
2022-09-06T02:00:32.009Z,101554.13
2022-09-06T02:05:59.386Z,101552.78
2022-09-06T02:11:23.561Z,101547.00
2022-09-06T02:16:49.619Z,101541.06
2022-09-06T02:22:16.869Z,101544.06
2022-09-06T02:27:40.106Z,101538.31
2022-09-06T02:33:06.155Z,101520.00
2022-09-06T02:38:30.941Z,101506.28
2022-09-06T02:43:54.209Z,101502.78
2022-09-06T02:49:17.361Z,101513.06
2022-09-06T02:54:41.803Z,101524.44
2022-09-06T03:00:05.177Z,101518.28
2022-09-06T03:05:29.200Z,101501.41
2022-09-06T03:10:55.037Z,101505.72
2022-09-06T03:16:18.285Z,101510.22
2022-09-06T03:21:41.463Z,101500.56
2022-09-06T03:27:06.190Z,101499.16
2022-09-06T03:32:29.294Z,101446.97
2022-09-06T03:37:52.470Z,101516.59
2022-09-06T03:43:18.570Z,101516.25
2022-09-06T03:48:42.285Z,101526.09
2022-09-06T03:54:05.710Z,101530.47
2022-09-06T03:59:30.638Z,101535.47
2022-09-06T04:04:55.520Z,101541.72
2022-09-06T04:10:18.896Z,101535.00
2022-09-06T04:15:48.640Z,101539.03
2022-09-06T04:21:11.842Z,101536.47
2022-09-06T04:26:35.283Z,101525.06
2022-09-06T04:31:59.766Z,101525.06
2022-09-06T04:37:22.979Z,101541.84
2022-09-06T04:42:46.243Z,101554.66
2022-09-06T04:48:10.686Z,101577.97
2022-09-06T04:53:33.861Z,101547.72
2022-09-06T04:58:57.658Z,101596.19
2022-09-06T05:04:22.382Z,101553.81
2022-09-06T05:09:45.499Z,101572.16
2022-09-06T05:15:10.000Z,101566.13
2022-09-06T05:20:34.506Z,101554.97
2022-09-06T05:26:12.001Z,101538.66
2022-09-06T05:31:37.766Z,101530.00
2022-09-06T05:37:02.381Z,101553.03
2022-09-06T05:42:25.433Z,101540.56
2022-09-06T05:47:48.772Z,101518.72
2022-09-06T05:53:13.268Z,101532.75
2022-09-06T05:58:36.392Z,101510.19
2022-09-06T06:04:00.678Z,101516.59
2022-09-06T06:09:25.149Z,101516.44
2022-09-06T06:14:48.278Z,101523.88
2022-09-06T06:20:11.637Z,101530.63
2022-09-06T06:25:36.093Z,101530.47
2022-09-06T06:30:59.409Z,101531.59
2022-09-06T06:36:24.308Z,101536.72
2022-09-06T06:41:50.707Z,101534.63
2022-09-06T06:47:22.946Z,101533.28
2022-09-06T06:52:46.571Z,101534.03
2022-09-06T06:58:11.040Z,101533.19
2022-09-06T07:03:34.618Z,101538.00
2022-09-06T07:08:58.362Z,101522.03
2022-09-06T07:14:22.810Z,101514.75
2022-09-06T07:25:29.149Z,101487.88
2022-09-06T07:30:56.220Z,101495.84
2022-09-06T07:36:19.311Z,101486.66
2022-09-06T07:41:43.936Z,101495.25
2022-09-06T07:53:11.862Z,101484.88
2022-09-06T07:58:37.011Z,101466.00
2022-09-06T08:04:02.858Z,101455.13
2022-09-06T08:09:25.942Z,101476.72
2022-09-06T08:14:49.013Z,101478.69
2022-09-06T08:20:13.475Z,101473.63
2022-09-06T08:25:36.548Z,101479.94
2022-09-06T08:31:06.813Z,101465.78
2022-09-06T08:36:31.847Z,101452.94
2022-09-06T08:41:57.847Z,101455.47
2022-09-06T08:47:22.049Z,101442.44
2022-09-06T08:53:13.640Z,101435.22
2022-09-06T08:58:47.766Z,101441.50
2022-09-06T09:04:15.498Z,101436.28
2022-09-06T09:09:39.910Z,101437.56
2022-09-06T09:15:08.761Z,101446.22
2022-09-06T09:20:31.945Z,101439.66
2022-09-06T09:26:00.359Z,101445.28
2022-09-06T09:31:35.569Z,101435.66
2022-09-06T09:43:16.324Z,101431.16
2022-09-06T09:48:39.983Z,101417.81
2022-09-06T09:54:04.757Z,101423.91
2022-09-06T09:59:31.569Z,101416.09
2022-09-06T10:05:01.725Z,101417.75
2022-09-06T10:10:26.634Z,101423.38
2022-09-06T10:15:52.584Z,101400.22
2022-09-06T10:21:18.925Z,101420.19
2022-09-06T10:26:46.313Z,101415.13
2022-09-06T10:32:25.638Z,101425.34
2022-09-06T10:37:55.769Z,101437.72
2022-09-06T10:43:20.426Z,101449.97
2022-09-06T10:48:46.807Z,101445.66
2022-09-06T10:54:11.620Z,101454.22
2022-09-06T10:59:37.520Z,101459.94
2022-09-06T11:10:51.167Z,101463.38
2022-09-06T11:16:17.602Z,101470.78
2022-09-06T11:22:19.060Z,101473.84
2022-09-06T11:27:46.261Z,101475.22
2022-09-06T11:33:14.439Z,101469.84
2022-09-06T11:38:37.535Z,101445.44
2022-09-06T11:44:02.510Z,101470.66
2022-09-06T11:49:33.686Z,101458.16
2022-09-06T11:54:56.881Z,101454.34
2022-09-06T12:00:23.819Z,101459.41
2022-09-06T12:06:15.876Z,101452.41
2022-09-06T12:11:43.667Z,101457.75
2022-09-06T12:17:29.174Z,101456.38
2022-09-06T12:22:55.733Z,101461.19
2022-09-06T12:28:25.765Z,101463.75
2022-09-06T12:33:50.354Z,101455.66
2022-09-06T12:39:13.443Z,101458.09
2022-09-06T12:44:37.893Z,101461.66
2022-09-06T12:50:14.858Z,101450.56
2022-09-06T12:55:39.586Z,101461.69
2022-09-06T13:01:07.994Z,101452.91
2022-09-06T13:06:36.529Z,101452.00
2022-09-06T13:12:05.750Z,101432.00
2022-09-06T13:17:30.594Z,101424.47
2022-09-06T13:23:07.410Z,101431.81
2022-09-06T13:28:32.049Z,101422.97
2022-09-06T13:33:57.990Z,101416.19
2022-09-06T13:39:33.849Z,101414.75
2022-09-06T13:45:01.760Z,101421.47
2022-09-06T13:50:27.788Z,101414.59
2022-09-06T13:55:52.816Z,101413.44
2022-09-06T14:01:16.173Z,101400.16
2022-09-06T14:06:48.358Z,101374.84
2022-09-06T14:12:13.201Z,101406.28
2022-09-06T14:17:36.382Z,101417.13
2022-09-06T14:22:59.699Z,101405.06
2022-09-06T14:28:24.296Z,101428.91
2022-09-06T14:33:47.793Z,101432.69
2022-09-06T14:39:10.923Z,101420.38
2022-09-06T14:44:35.480Z,101360.53
2022-09-06T14:49:58.591Z,101411.16
2022-09-06T14:55:21.856Z,101401.00
2022-09-06T15:00:47.266Z,101406.38
2022-09-06T15:06:11.437Z,101403.97
2022-09-06T15:11:36.775Z,101402.97
2022-09-06T15:17:03.126Z,101404.25
2022-09-06T15:22:26.744Z,101401.44
2022-09-06T15:27:49.917Z,101409.44
2022-09-06T15:33:15.028Z,101376.09
2022-09-06T15:38:41.116Z,101393.06
2022-09-06T15:44:09.510Z,101390.09
2022-09-06T15:49:33.952Z,101397.75
2022-09-06T15:55:14.624Z,101391.56
2022-09-06T16:00:37.756Z,101372.34
2022-09-06T16:11:49.829Z,101371.59
2022-09-06T16:17:13.043Z,101367.94
2022-09-06T16:22:37.911Z,101355.66
2022-09-06T16:28:02.638Z,101352.66
2022-09-06T16:33:25.803Z,101358.25
2022-09-06T16:38:50.527Z,101353.22
2022-09-06T16:44:16.618Z,101357.72
2022-09-06T16:49:40.673Z,101351.50
2022-09-06T16:55:05.721Z,101358.72
2022-09-06T17:00:28.791Z,101307.97
2022-09-06T17:05:52.244Z,101356.13
2022-09-06T17:11:18.385Z,101354.56
2022-09-06T17:16:59.188Z,101348.97
2022-09-06T17:22:22.371Z,101339.50
2022-09-06T17:27:46.842Z,101336.94
2022-09-06T17:33:10.176Z,101354.56
2022-09-06T17:38:33.338Z,101351.00
2022-09-06T17:43:58.692Z,101349.78
2022-09-06T17:49:21.932Z,101356.97
2022-09-06T17:54:46.602Z,101353.78
2022-09-06T18:00:13.963Z,101345.72
2022-09-06T18:05:39.728Z,101347.03
2022-09-06T18:11:08.165Z,101360.25
2022-09-06T18:16:34.065Z,101359.41
2022-09-06T18:21:57.722Z,101366.09
2022-09-06T18:27:20.890Z,101345.38
2022-09-06T18:32:45.397Z,101355.78
2022-09-06T18:38:09.544Z,101343.81
2022-09-06T18:43:34.278Z,101358.25
2022-09-06T18:48:58.857Z,101357.53
2022-09-06T18:54:22.296Z,101366.84
2022-09-06T18:59:45.762Z,101366.34
2022-09-06T19:05:10.608Z,101365.66
2022-09-06T19:10:33.686Z,101360.97
2022-09-06T19:15:57.206Z,101358.75
2022-09-06T19:21:22.988Z,101368.19
2022-09-06T19:26:46.906Z,101357.13
2022-09-06T19:32:09.973Z,101337.50
2022-09-06T19:37:34.842Z,101323.28
2022-09-06T19:42:58.122Z,101311.53
2022-09-06T19:48:21.289Z,101302.22
2022-09-06T19:53:52.944Z,101303.81
2022-09-06T19:59:17.690Z,101299.53
2022-09-06T20:04:41.452Z,101296.88
2022-09-06T20:10:06.780Z,101278.53
2022-09-06T20:15:30.623Z,101265.13
2022-09-06T20:20:56.186Z,101242.00
2022-09-06T20:26:23.525Z,101235.69
2022-09-06T20:31:46.804Z,101242.81
2022-09-06T20:37:09.985Z,101217.69
2022-09-06T20:42:34.685Z,101207.47
2022-09-06T20:47:58.467Z,101179.97
2022-09-06T20:53:21.602Z,101196.72
2022-09-06T20:58:50.144Z,101184.25
2022-09-06T21:04:14.769Z,101171.81
2022-09-06T21:09:37.941Z,101160.69
2022-09-06T21:15:02.984Z,101202.41
2022-09-06T21:20:26.073Z,101194.91
2022-09-06T21:25:53.678Z,101211.88
2022-09-06T21:31:19.847Z,101243.28
2022-09-06T21:36:43.625Z,101271.28
2022-09-06T21:42:07.107Z,101213.69
2022-09-06T21:47:32.263Z,101287.72
2022-09-06T21:52:55.400Z,101299.31
2022-09-06T21:58:18.589Z,101346.44
2022-09-06T22:03:43.069Z,101400.00
2022-09-06T22:09:10.476Z,101456.13
2022-09-06T22:14:33.569Z,101493.28
2022-09-06T22:19:58.101Z,101511.31
2022-09-06T22:25:21.427Z,101512.75
2022-09-06T22:30:45.016Z,101535.41
2022-09-06T22:36:10.302Z,101543.63
2022-09-06T22:41:33.959Z,101522.75
2022-09-06T22:46:57.590Z,101536.84
2022-09-06T22:52:22.122Z,101568.25
2022-09-06T22:57:45.298Z,101556.91
2022-09-06T23:03:08.422Z,101552.16
2022-09-06T23:08:33.516Z,101525.03
2022-09-06T23:13:56.940Z,101517.81
2022-09-06T23:19:20.058Z,101512.81
2022-09-06T23:24:44.685Z,101494.56
2022-09-06T23:30:09.350Z,101505.97
2022-09-06T23:35:32.498Z,101481.31
2022-09-06T23:40:57.014Z,101462.91
2022-09-06T23:46:20.231Z,101447.34
2022-09-06T23:51:45.978Z,101419.59
2022-09-06T23:57:10.460Z,101436.88
